PILOTS ONLINE: 238    ATC ONLINE: 40

EGDM - MoD Boscombe Down Airport

Location

City Amesbury
Country  United Kingdom
Latitude 51° 9' 7" N
Longitude 1° 44' 50" W
Elevation 407 ft
Type Medium Airport

Runways

05/23 10538 ft / 150 ft
17/35 6278 ft / 150 ft

Weather

METAR
2014/07/24 03:50
EGDM 240350Z AUTO 06008KT 9999 NCD 17/13 Q1017
TAF
2011/02/13 06:09
TAF EGDM 130455Z 1306/1324 17015KT 9999 -RA BKN015 
      TEMPO 1306/1312 17018G28KT 6000 -RADZ BKN010 PROB30 
      TEMPO 1306/1315 3000 RADZ BKN006 
      BECMG 1312/1315 BKN008

Outbound flights

Inbound flights